createdAt,value
2018-02-02T00:45:00.296Z,4.60
2018-02-02T00:47:28.394Z,4.50
2018-02-02T00:49:56.540Z,4.40
2018-02-02T00:52:24.648Z,4.50
2018-02-02T00:54:52.795Z,4.40
2018-02-02T00:57:21.697Z,4.50
2018-02-02T00:59:49.850Z,4.50
2018-02-02T01:02:17.979Z,4.50
2018-02-02T01:04:46.125Z,4.60
2018-02-02T01:07:14.239Z,4.60
2018-02-02T01:09:42.386Z,4.50
2018-02-02T01:12:10.508Z,4.60
2018-02-02T01:14:38.648Z,4.60
2018-02-02T01:17:07.552Z,4.60
2018-02-02T01:19:35.690Z,4.50
2018-02-02T01:22:03.796Z,4.60
2018-02-02T01:24:32.002Z,4.60
2018-02-02T01:27:00.855Z,4.50
2018-02-02T01:29:28.988Z,4.50
2018-02-02T01:31:57.114Z,4.60
2018-02-02T01:34:25.244Z,4.50
2018-02-02T01:36:53.358Z,4.70
2018-02-02T01:39:21.488Z,4.70
2018-02-02T01:41:49.601Z,4.70
2018-02-02T01:44:17.732Z,4.50
2018-02-02T01:46:45.856Z,4.50
2018-02-02T01:49:13.990Z,4.50
2018-02-02T01:51:42.128Z,4.40
2018-02-02T01:54:11.042Z,4.40
2018-02-02T01:56:39.158Z,4.40
2018-02-02T01:59:07.295Z,4.40
2018-02-02T02:01:35.409Z,4.50
2018-02-02T02:04:03.542Z,4.50
2018-02-02T02:06:31.662Z,4.60
2018-02-02T02:08:59.771Z,4.60
2018-02-02T02:11:27.911Z,4.60
2018-02-02T02:13:56.030Z,4.60
2018-02-02T02:16:24.180Z,4.50
2018-02-02T02:18:53.056Z,4.50
2018-02-02T02:21:21.187Z,4.50
2018-02-02T02:23:49.299Z,4.50
2018-02-02T02:26:17.453Z,4.50
2018-02-02T02:28:45.581Z,4.50
2018-02-02T02:31:13.758Z,4.40
2018-02-02T02:33:41.880Z,4.40
2018-02-02T02:36:10.020Z,4.50
2018-02-02T02:38:38.123Z,4.50
2018-02-02T02:41:06.269Z,4.40
2018-02-02T02:43:34.419Z,4.40
2018-02-02T02:46:02.554Z,4.50
2018-02-02T02:48:30.668Z,4.60
2018-02-02T02:50:58.814Z,4.60
2018-02-02T02:53:26.930Z,4.70
2018-02-02T02:55:55.058Z,4.70
2018-02-02T02:58:23.170Z,4.60
2018-02-02T03:00:51.324Z,4.60
2018-02-02T03:03:19.435Z,4.60
2018-02-02T03:05:47.598Z,4.60
2018-02-02T03:08:15.757Z,4.50
2018-02-02T03:10:43.869Z,4.50
2018-02-02T03:13:11.980Z,4.40
2018-02-02T03:15:40.910Z,4.30
2018-02-02T03:18:09.024Z,4.30
2018-02-02T03:20:37.168Z,4.40
2018-02-02T03:23:05.294Z,4.50
2018-02-02T03:25:34.198Z,4.50
2018-02-02T03:28:02.314Z,4.50
2018-02-02T03:30:30.448Z,4.40
2018-02-02T03:32:58.555Z,4.60
2018-02-02T03:35:26.684Z,4.70
2018-02-02T03:37:54.795Z,4.70
2018-02-02T03:40:22.932Z,4.70
2018-02-02T03:42:51.043Z,4.60
2018-02-02T03:45:19.184Z,4.60
2018-02-02T03:47:47.298Z,4.60
2018-02-02T03:50:15.449Z,4.50
2018-02-02T03:52:43.568Z,4.60
2018-02-02T03:55:11.718Z,4.60
2018-02-02T03:57:39.826Z,4.50
2018-02-02T04:00:08.745Z,4.60
2018-02-02T04:02:38.821Z,4.50
2018-02-02T04:05:06.964Z,4.70
2018-02-02T04:07:35.071Z,4.70
2018-02-02T04:10:03.332Z,4.60
2018-02-02T04:12:31.519Z,4.60
2018-02-02T04:14:59.655Z,4.70
2018-02-02T04:17:27.763Z,4.50
2018-02-02T04:19:57.113Z,4.50
2018-02-02T04:22:25.947Z,4.40
2018-02-02T04:24:54.085Z,4.40
2018-02-02T04:27:22.201Z,4.40
2018-02-02T04:29:50.337Z,4.50
2018-02-02T04:32:18.459Z,4.60
2018-02-02T04:35:04.466Z,4.50
2018-02-02T04:37:33.343Z,4.60
2018-02-02T04:40:02.268Z,4.60
2018-02-02T04:42:30.380Z,4.60
2018-02-02T04:44:59.288Z,4.40
2018-02-02T04:47:27.426Z,4.40
2018-02-02T04:49:55.548Z,4.30
2018-02-02T04:52:24.800Z,4.40
2018-02-02T04:54:52.920Z,4.40
2018-02-02T04:57:21.829Z,4.40
2018-02-02T04:59:49.939Z,4.40
2018-02-02T05:02:18.083Z,4.30
2018-02-02T05:04:46.202Z,4.20
2018-02-02T05:07:14.339Z,4.20
2018-02-02T05:09:42.477Z,4.30
2018-02-02T05:12:11.076Z,4.20
2018-02-02T05:14:39.195Z,4.30
2018-02-02T05:17:08.141Z,4.30
2018-02-02T05:19:36.257Z,4.30
2018-02-02T05:22:04.408Z,4.40
2018-02-02T05:24:32.521Z,4.30
2018-02-02T05:27:00.656Z,4.50
2018-02-02T05:29:28.776Z,4.50
2018-02-02T05:31:56.922Z,4.40
2018-02-02T05:34:25.054Z,4.50
2018-02-02T05:36:53.196Z,4.50
2018-02-02T05:39:21.378Z,4.50
2018-02-02T05:41:50.298Z,4.40
2018-02-02T05:44:18.405Z,4.40
2018-02-02T05:46:47.509Z,4.40
2018-02-02T05:49:17.328Z,4.30
2018-02-02T05:51:48.725Z,4.30
2018-02-02T05:54:16.929Z,4.40
2018-02-02T05:56:45.084Z,4.30
2018-02-02T05:59:13.194Z,4.40
2018-02-02T06:01:41.358Z,4.40
2018-02-02T06:04:10.820Z,4.40
2018-02-02T06:06:39.889Z,4.30
2018-02-02T06:09:09.955Z,4.30
2018-02-02T06:11:38.096Z,4.10
2018-02-02T06:14:07.252Z,3.90
2018-02-02T06:16:35.681Z,3.90
2018-02-02T06:19:26.242Z,3.80
2018-02-02T06:21:54.395Z,3.70
2018-02-02T06:24:22.504Z,3.80
2018-02-02T06:26:50.641Z,3.70
2018-02-02T06:29:18.897Z,3.70
2018-02-02T06:31:47.140Z,3.60
2018-02-02T06:34:15.243Z,3.80
2018-02-02T06:36:43.413Z,3.90
2018-02-02T06:39:12.086Z,3.90
2018-02-02T06:41:40.991Z,3.90
2018-02-02T06:44:09.117Z,3.80
2018-02-02T06:46:37.278Z,3.80
2018-02-02T06:49:08.519Z,3.90
2018-02-02T06:51:38.561Z,3.90
2018-02-02T06:54:06.684Z,3.90
2018-02-02T06:56:34.857Z,3.90
2018-02-02T06:59:02.968Z,3.80
2018-02-02T07:01:31.114Z,3.80
2018-02-02T07:03:59.232Z,3.80
2018-02-02T07:06:27.374Z,3.90
2018-02-02T07:08:55.486Z,3.90
2018-02-02T07:11:23.629Z,3.90
2018-02-02T07:13:51.735Z,3.80
2018-02-02T07:16:20.632Z,3.70
2018-02-02T07:18:49.517Z,3.70
2018-02-02T07:21:17.660Z,3.70
2018-02-02T07:23:45.778Z,3.60
2018-02-02T07:26:14.655Z,3.50
2018-02-02T07:28:43.642Z,3.60
2018-02-02T07:31:11.747Z,3.50
2018-02-02T07:33:39.894Z,3.60
2018-02-02T07:36:08.003Z,3.60
2018-02-02T07:38:36.140Z,3.70
2018-02-02T07:41:05.020Z,3.70
2018-02-02T07:43:33.161Z,3.60
2018-02-02T07:46:01.277Z,3.70
2018-02-02T07:48:30.174Z,3.50
2018-02-02T07:50:58.313Z,3.50
2018-02-02T07:53:26.515Z,3.60
2018-02-02T07:55:54.621Z,3.70
2018-02-02T07:58:22.848Z,3.80
2018-02-02T08:00:56.750Z,3.80
2018-02-02T08:03:24.898Z,3.90
2018-02-02T08:05:53.019Z,4.10
2018-02-02T08:08:21.929Z,4.40
2018-02-02T08:10:50.809Z,4.60
2018-02-02T08:13:19.712Z,4.70
2018-02-02T08:15:47.835Z,4.70
2018-02-02T08:18:15.968Z,4.80
2018-02-02T08:20:44.080Z,4.80
2018-02-02T08:23:12.212Z,4.80
2018-02-02T08:25:40.322Z,4.80
2018-02-02T08:28:08.460Z,4.80
2018-02-02T08:30:36.570Z,4.90
2018-02-02T08:33:05.556Z,5.00
2018-02-02T08:35:33.685Z,5.00
2018-02-02T08:38:01.824Z,5.00
2018-02-02T08:40:29.936Z,5.10
2018-02-02T08:42:58.069Z,4.90
2018-02-02T08:45:26.179Z,5.00
2018-02-02T08:47:55.081Z,5.00
2018-02-02T08:50:23.207Z,5.00
2018-02-02T08:52:51.358Z,4.90
2018-02-02T08:55:19.476Z,4.80
2018-02-02T08:57:48.387Z,4.80
2018-02-02T09:00:16.491Z,4.80
2018-02-02T09:02:44.629Z,4.90
2018-02-02T09:05:12.742Z,5.00
2018-02-02T09:07:40.924Z,5.00
2018-02-02T09:10:09.043Z,4.90
2018-02-02T09:12:37.957Z,4.80
2018-02-02T09:15:06.084Z,4.80
2018-02-02T09:17:34.216Z,5.00
2018-02-02T09:20:02.374Z,5.10
2018-02-02T09:22:30.516Z,5.40
2018-02-02T09:24:59.405Z,5.80
2018-02-02T09:27:27.819Z,6.10
2018-02-02T09:29:55.935Z,6.10
2018-02-02T09:32:24.078Z,6.30
2018-02-02T09:34:52.193Z,6.70
2018-02-02T09:37:20.354Z,7.00
2018-02-02T09:39:48.471Z,6.90
2018-02-02T09:42:17.506Z,6.80
2018-02-02T09:44:46.424Z,6.80
2018-02-02T09:47:14.569Z,6.70
2018-02-02T09:49:42.678Z,6.60
2018-02-02T09:52:10.820Z,6.30
2018-02-02T09:54:38.922Z,6.20
2018-02-02T09:57:07.066Z,6.00
2018-02-02T09:59:35.185Z,6.10
2018-02-02T10:02:04.076Z,5.70
2018-02-02T10:04:32.222Z,5.70
2018-02-02T10:07:00.438Z,5.60
2018-02-02T10:09:29.345Z,5.50
2018-02-02T10:11:57.450Z,5.50
2018-02-02T10:14:25.584Z,5.40
2018-02-02T10:16:54.147Z,5.40
2018-02-02T10:19:22.276Z,5.30
2018-02-02T10:21:50.379Z,5.30
2018-02-02T10:24:18.535Z,5.20
2018-02-02T10:26:46.653Z,4.90
2018-02-02T10:29:14.791Z,5.00
2018-02-02T10:31:42.955Z,5.20
2018-02-02T10:34:11.104Z,5.30
2018-02-02T10:36:39.267Z,5.30
2018-02-02T10:39:08.177Z,5.30
2018-02-02T10:41:36.288Z,5.30
2018-02-02T10:44:05.246Z,5.40
2018-02-02T10:46:34.128Z,5.40
2018-02-02T10:49:12.805Z,5.30
2018-02-02T10:51:40.925Z,5.30
2018-02-02T10:54:09.835Z,5.20
2018-02-02T10:56:37.988Z,5.20
2018-02-02T10:59:06.880Z,5.10
2018-02-02T11:01:36.798Z,5.00
2018-02-02T11:04:07.612Z,5.10
2018-02-02T11:06:35.727Z,5.00
2018-02-02T11:09:04.618Z,5.30
2018-02-02T11:11:32.748Z,5.20
2018-02-02T11:14:00.983Z,5.30
2018-02-02T11:16:29.092Z,5.30
2018-02-02T11:18:57.216Z,5.20
2018-02-02T11:21:25.332Z,5.30
2018-02-02T11:23:53.483Z,5.30
2018-02-02T11:26:21.588Z,5.30
2018-02-02T11:28:50.540Z,5.30
2018-02-02T11:31:18.643Z,5.30
2018-02-02T11:33:46.794Z,5.20
2018-02-02T11:36:14.904Z,5.20
2018-02-02T11:38:44.230Z,5.40
2018-02-02T11:41:12.353Z,5.40
2018-02-02T11:43:40.478Z,5.20
2018-02-02T11:46:10.700Z,5.30
2018-02-02T11:48:40.690Z,5.40
2018-02-02T11:51:08.804Z,5.40
2018-02-02T11:53:37.474Z,5.60
2018-02-02T11:56:06.356Z,5.40
2018-02-02T11:58:34.515Z,5.40
2018-02-02T12:01:02.645Z,5.40
2018-02-02T12:03:30.781Z,5.40
2018-02-02T12:05:58.887Z,5.30
2018-02-02T12:08:26.998Z,5.30
2018-02-02T12:10:55.662Z,5.40
2018-02-02T12:13:23.774Z,5.40
2018-02-02T12:15:51.913Z,5.50
2018-02-02T12:18:20.040Z,5.50
2018-02-02T12:20:48.946Z,5.50
2018-02-02T12:23:23.652Z,5.40
2018-02-02T12:25:58.278Z,5.30
2018-02-02T12:28:31.665Z,5.00
2018-02-02T12:31:00.386Z,5.00
2018-02-02T12:33:30.310Z,5.40
2018-02-02T12:36:14.137Z,5.40
2018-02-02T12:38:42.303Z,5.70
2018-02-02T12:41:10.453Z,5.70
2018-02-02T12:43:38.563Z,5.80
2018-02-02T12:46:07.512Z,5.80
2018-02-02T12:48:41.400Z,5.80
2018-02-02T12:51:16.368Z,5.90
2018-02-02T12:53:44.483Z,6.00
2018-02-02T12:56:12.640Z,6.10
2018-02-02T12:58:41.528Z,6.00
2018-02-02T13:01:10.437Z,6.10
2018-02-02T13:03:38.552Z,6.10
2018-02-02T13:06:06.708Z,6.10
2018-02-02T13:08:34.822Z,6.30
2018-02-02T13:11:03.038Z,6.00
2018-02-02T13:13:31.155Z,6.00
2018-02-02T13:15:59.292Z,5.80
2018-02-02T13:18:27.462Z,5.70
2018-02-02T13:20:55.598Z,5.90
2018-02-02T13:23:23.713Z,5.70
2018-02-02T13:25:51.852Z,5.90
2018-02-02T13:28:20.738Z,6.00
2018-02-02T13:30:48.881Z,6.00
2018-02-02T13:33:16.989Z,6.00
2018-02-02T13:35:45.908Z,5.90
2018-02-02T13:38:14.452Z,5.90
2018-02-02T13:40:42.596Z,5.80
2018-02-02T13:43:10.698Z,5.90
2018-02-02T13:45:38.837Z,5.90
2018-02-02T13:48:06.952Z,6.00
2018-02-02T13:50:35.230Z,6.00
2018-02-02T13:53:03.713Z,6.00
2018-02-02T13:55:31.977Z,6.20
2018-02-02T13:58:00.899Z,6.10
2018-02-02T14:00:29.835Z,6.10
2018-02-02T14:02:58.004Z,6.00
2018-02-02T14:05:26.321Z,6.20
2018-02-02T14:07:54.484Z,6.20
2018-02-02T14:10:22.676Z,6.20
2018-02-02T14:12:50.972Z,6.30
2018-02-02T14:15:19.624Z,6.40
2018-02-02T14:17:47.742Z,6.50
2018-02-02T14:20:16.713Z,6.50
2018-02-02T14:22:45.828Z,6.30
2018-02-02T14:25:14.074Z,6.30
2018-02-02T14:27:42.321Z,6.30
2018-02-02T14:30:10.553Z,6.30
2018-02-02T14:32:38.726Z,6.30
2018-02-02T14:35:06.962Z,6.20
2018-02-02T14:37:35.083Z,6.10
2018-02-02T14:40:03.287Z,6.10
2018-02-02T14:42:31.444Z,6.00
2018-02-02T14:45:00.326Z,5.90
2018-02-02T14:47:29.357Z,5.80
2018-02-02T14:49:57.535Z,5.80
2018-02-02T14:52:25.682Z,5.80
2018-02-02T14:54:54.565Z,5.90
2018-02-02T14:57:22.702Z,5.90
2018-02-02T14:59:50.812Z,5.90
2018-02-02T15:02:19.055Z,5.90
2018-02-02T15:04:49.519Z,6.00
2018-02-02T15:07:17.653Z,6.00
2018-02-02T15:09:45.771Z,6.00
2018-02-02T15:12:14.686Z,6.10
2018-02-02T15:14:42.835Z,6.10
2018-02-02T15:17:11.073Z,6.20
2018-02-02T15:19:39.184Z,6.00
2018-02-02T15:22:08.080Z,6.00
2018-02-02T15:24:36.952Z,6.00
2018-02-02T15:27:05.117Z,6.00
2018-02-02T15:29:33.217Z,5.80
2018-02-02T15:32:02.121Z,6.00
2018-02-02T15:34:31.006Z,6.10
2018-02-02T15:36:59.908Z,6.20
2018-02-02T15:39:28.913Z,6.10
2018-02-02T15:41:57.022Z,6.10
2018-02-02T15:44:25.121Z,6.10
2018-02-02T15:46:53.256Z,6.00
2018-02-02T15:49:21.379Z,6.00
2018-02-02T15:51:50.283Z,5.90
2018-02-02T15:54:19.164Z,6.00
2018-02-02T15:56:48.084Z,6.00
2018-02-02T15:59:16.262Z,6.00
2018-02-02T16:01:44.398Z,6.00
2018-02-02T16:04:12.506Z,6.10
2018-02-02T16:06:40.649Z,6.10
2018-02-02T16:09:09.560Z,6.00
2018-02-02T16:11:37.692Z,6.00
2018-02-02T16:14:05.812Z,6.00
2018-02-02T16:16:34.047Z,6.00
2018-02-02T16:19:02.157Z,6.00
2018-02-02T16:21:30.305Z,5.90
2018-02-02T16:23:58.434Z,5.90
2018-02-02T16:26:26.591Z,5.80
2018-02-02T16:28:54.744Z,5.80
2018-02-02T16:31:23.925Z,5.80
2018-02-02T16:33:52.816Z,5.90
2018-02-02T16:36:21.712Z,5.90
2018-02-02T16:38:50.583Z,5.90
2018-02-02T16:41:18.721Z,5.90
2018-02-02T16:43:46.905Z,5.80
2018-02-02T16:46:15.048Z,5.80
2018-02-02T16:48:43.161Z,5.90
2018-02-02T16:51:11.288Z,5.70
2018-02-02T16:53:39.433Z,5.80
2018-02-02T16:56:07.581Z,5.60
2018-02-02T16:58:38.679Z,5.50
2018-02-02T17:01:06.821Z,5.60
2018-02-02T17:03:34.945Z,5.70
2018-02-02T17:06:03.095Z,5.90
2018-02-02T17:08:31.962Z,5.90
2018-02-02T17:11:00.091Z,5.80
2018-02-02T17:13:28.227Z,5.80
2018-02-02T17:15:57.120Z,5.60
2018-02-02T17:18:26.064Z,5.70
2018-02-02T17:20:54.179Z,5.60
2018-02-02T17:23:23.080Z,5.70
2018-02-02T17:25:51.200Z,5.70
2018-02-02T17:28:19.341Z,5.70
2018-02-02T17:30:47.451Z,5.70
2018-02-02T17:33:15.629Z,5.60
2018-02-02T17:35:43.759Z,5.50
2018-02-02T17:38:11.904Z,5.50
2018-02-02T17:40:40.779Z,5.60
2018-02-02T17:43:08.921Z,5.50
2018-02-02T17:45:37.037Z,5.60
2018-02-02T17:48:05.952Z,5.70
2018-02-02T17:50:34.063Z,5.60
2018-02-02T17:53:03.833Z,5.70
2018-02-02T17:55:31.963Z,5.70
2018-02-02T17:58:01.645Z,5.60
2018-02-02T18:00:44.629Z,5.60
2018-02-02T18:03:14.122Z,5.70
2018-02-02T18:05:42.241Z,5.70
2018-02-02T18:08:10.388Z,5.70
2018-02-02T18:10:39.261Z,5.50
2018-02-02T18:13:08.172Z,5.60
2018-02-02T18:15:36.298Z,5.50
2018-02-02T18:18:04.467Z,5.60
2018-02-02T18:20:32.589Z,5.60
2018-02-02T18:23:01.497Z,5.60
2018-02-02T18:25:29.624Z,5.50
2018-02-02T18:27:57.774Z,5.60
2018-02-02T18:30:25.885Z,5.60
2018-02-02T18:32:54.791Z,5.60
2018-02-02T18:35:23.680Z,5.50
2018-02-02T18:37:52.573Z,5.40
2018-02-02T18:40:21.450Z,5.20
2018-02-02T18:42:50.358Z,5.30
2018-02-02T18:45:18.498Z,5.20
2018-02-02T18:47:46.637Z,5.30
2018-02-02T18:50:14.836Z,5.40
2018-02-02T18:52:43.046Z,5.30
2018-02-02T18:55:12.040Z,5.50
2018-02-02T18:57:40.363Z,5.40
2018-02-02T19:00:08.584Z,5.50
2018-02-02T19:02:37.592Z,5.70
2018-02-02T19:05:05.706Z,5.70
2018-02-02T19:07:33.978Z,5.60
2018-02-02T19:10:02.104Z,5.60
2018-02-02T19:12:31.336Z,5.60
2018-02-02T19:15:00.220Z,5.50
2018-02-02T19:17:29.160Z,5.60
2018-02-02T19:19:57.368Z,5.60
2018-02-02T19:22:25.526Z,5.60
2018-02-02T19:24:53.644Z,5.70
2018-02-02T19:27:21.994Z,5.80
2018-02-02T19:29:50.146Z,5.80
2018-02-02T19:32:18.310Z,5.80
2018-02-02T19:34:46.875Z,5.60
2018-02-02T19:37:15.159Z,5.60
2018-02-02T19:39:43.496Z,5.70
2018-02-02T19:42:11.635Z,5.70
2018-02-02T19:44:39.769Z,5.80
2018-02-02T19:47:07.927Z,5.70
2018-02-02T19:49:36.821Z,5.60
2018-02-02T19:52:05.723Z,5.70
2018-02-02T19:54:33.849Z,5.60
2018-02-02T19:57:02.747Z,5.70
2018-02-02T19:59:30.892Z,5.70
2018-02-02T20:01:59.034Z,5.90
2018-02-02T20:04:27.948Z,6.00
2018-02-02T20:06:56.190Z,6.00
2018-02-02T20:09:24.356Z,5.90
2018-02-02T20:11:52.525Z,5.80
2018-02-02T20:14:21.509Z,5.80
2018-02-02T20:16:49.716Z,5.80
2018-02-02T20:19:18.625Z,5.80
2018-02-02T20:21:47.117Z,5.80
2018-02-02T20:24:15.298Z,5.80
2018-02-02T20:26:43.512Z,5.90
2018-02-02T20:29:11.765Z,6.00
2018-02-02T20:31:39.950Z,5.90
2018-02-02T20:34:08.198Z,5.90
2018-02-02T20:36:36.325Z,5.90
2018-02-02T20:39:04.781Z,6.00
2018-02-02T20:41:32.957Z,6.00
2018-02-02T20:44:01.266Z,6.00
2018-02-02T20:46:30.236Z,6.00
2018-02-02T20:48:58.449Z,6.00
2018-02-02T20:51:27.375Z,5.90
2018-02-02T20:53:55.604Z,5.90
2018-02-02T20:56:23.720Z,6.10
2018-02-02T20:58:51.881Z,5.90
2018-02-02T21:01:20.757Z,5.90
2018-02-02T21:03:48.905Z,5.90
2018-02-02T21:06:17.067Z,5.90
2018-02-02T21:08:46.017Z,6.00
2018-02-02T21:11:14.291Z,6.00
2018-02-02T21:13:42.472Z,6.10
2018-02-02T21:16:10.583Z,6.00
2018-02-02T21:18:38.720Z,5.90
2018-02-02T21:21:06.844Z,5.90
2018-02-02T21:23:34.980Z,5.80
2018-02-02T21:26:03.105Z,5.90
2018-02-02T21:28:31.235Z,5.80
2018-02-02T21:30:59.343Z,5.90
2018-02-02T21:33:27.484Z,5.80
2018-02-02T21:35:55.614Z,5.80
2018-02-02T21:38:24.535Z,5.80
2018-02-02T21:40:52.647Z,5.80
2018-02-02T21:43:20.797Z,5.90
2018-02-02T21:45:48.934Z,5.90
2018-02-02T21:48:17.846Z,5.70
2018-02-02T21:50:45.959Z,5.70
2018-02-02T21:53:14.106Z,5.80
2018-02-02T21:55:42.224Z,5.80
2018-02-02T21:58:10.373Z,5.90
2018-02-02T22:00:38.483Z,5.80
2018-02-02T22:03:07.405Z,5.80
2018-02-02T22:05:35.525Z,5.80
2018-02-02T22:08:03.656Z,5.80
2018-02-02T22:10:31.785Z,5.80
2018-02-02T22:12:59.918Z,5.70
2018-02-02T22:15:28.821Z,5.70
2018-02-02T22:17:57.002Z,5.70
2018-02-02T22:20:25.104Z,5.60
2018-02-02T22:22:54.021Z,5.60
2018-02-02T22:25:22.251Z,5.60
2018-02-02T22:27:51.322Z,5.60
2018-02-02T22:30:19.490Z,5.60
2018-02-02T22:32:47.617Z,5.70
2018-02-02T22:35:16.648Z,5.40
2018-02-02T22:37:44.771Z,5.40
2018-02-02T22:40:12.922Z,5.50
2018-02-02T22:42:41.042Z,5.60
2018-02-02T22:45:09.961Z,5.60
2018-02-02T22:47:38.071Z,5.60
2018-02-02T22:50:06.195Z,5.60
2018-02-02T22:52:34.307Z,5.50
2018-02-02T22:55:02.450Z,5.50
2018-02-02T22:57:30.556Z,5.50
2018-02-02T22:59:58.702Z,5.50
2018-02-02T23:02:26.818Z,5.50
2018-02-02T23:04:54.977Z,5.60
2018-02-02T23:07:23.115Z,5.60
2018-02-02T23:09:51.253Z,5.50
2018-02-02T23:12:20.127Z,5.40
2018-02-02T23:14:48.271Z,5.40
2018-02-02T23:17:16.408Z,5.50
2018-02-02T23:19:44.551Z,5.40
2018-02-02T23:22:12.661Z,5.40
2018-02-02T23:24:40.804Z,5.40
2018-02-02T23:27:08.921Z,5.40
2018-02-02T23:29:37.070Z,5.50
2018-02-02T23:32:05.947Z,5.60
2018-02-02T23:34:34.865Z,5.60
2018-02-02T23:37:02.989Z,5.60
2018-02-02T23:39:31.186Z,5.60
2018-02-02T23:41:59.291Z,5.60
2018-02-02T23:44:27.888Z,5.60
2018-02-02T23:46:55.999Z,5.70
2018-02-02T23:49:24.142Z,5.70
2018-02-02T23:51:52.265Z,5.70
2018-02-02T23:54:21.278Z,5.70
2018-02-02T23:56:49.387Z,5.70
2018-02-02T23:59:17.533Z,5.50
